createdAt,value
2022-12-08T00:01:19.456Z,15.13
2022-12-08T00:03:46.799Z,13.77
2022-12-08T00:06:45.976Z,14.00
2022-12-08T00:09:23.621Z,13.95
2022-12-08T00:11:55.322Z,13.15
2022-12-08T00:14:31.293Z,12.90
2022-12-08T00:17:00.336Z,13.48
2022-12-08T00:19:27.724Z,14.35
2022-12-08T00:21:54.617Z,13.30
2022-12-08T00:24:22.770Z,12.40
2022-12-08T00:26:49.587Z,12.65
2022-12-08T00:29:17.654Z,13.85
2022-12-08T00:31:44.571Z,12.43
2022-12-08T00:34:12.995Z,12.68
2022-12-08T00:36:39.720Z,13.00
2022-12-08T00:39:06.130Z,13.88
2022-12-08T00:41:51.091Z,13.75
2022-12-08T00:44:18.882Z,12.05
2022-12-08T00:46:46.761Z,13.18
2022-12-08T00:49:13.630Z,12.77
2022-12-08T00:51:40.943Z,12.85
2022-12-08T00:54:07.889Z,13.05
2022-12-08T00:56:34.933Z,12.45
2022-12-08T00:59:01.827Z,13.68
2022-12-08T01:01:28.355Z,13.38
2022-12-08T01:03:55.147Z,13.20
2022-12-08T01:06:21.533Z,14.63
2022-12-08T01:08:48.218Z,13.35
2022-12-08T01:11:19.233Z,16.88
2022-12-08T01:13:46.755Z,18.90
2022-12-08T01:16:27.305Z,17.00
2022-12-08T01:18:53.978Z,17.40
2022-12-08T01:21:20.973Z,16.52
2022-12-08T01:23:47.451Z,16.85
2022-12-08T01:26:16.081Z,16.83
2022-12-08T01:28:43.444Z,16.70
2022-12-08T01:31:15.553Z,17.55
2022-12-08T01:33:42.671Z,19.52
2022-12-08T01:36:18.369Z,19.88
2022-12-08T01:38:44.869Z,20.35
2022-12-08T01:41:15.643Z,20.05
2022-12-08T01:44:08.277Z,23.10
2022-12-08T01:46:40.051Z,21.75
2022-12-08T01:49:29.491Z,23.88
2022-12-08T01:52:02.803Z,26.83
2022-12-08T01:54:34.046Z,27.00
2022-12-08T01:57:25.394Z,26.65
2022-12-08T02:00:02.242Z,28.38
2022-12-08T02:02:48.197Z,26.55
2022-12-08T02:05:16.128Z,27.02
2022-12-08T02:07:43.901Z,28.00
2022-12-08T02:10:13.786Z,27.27
2022-12-08T02:12:40.268Z,27.23
2022-12-08T02:15:07.089Z,28.95
2022-12-08T02:17:45.197Z,29.55
2022-12-08T02:20:37.078Z,28.48
2022-12-08T02:23:45.384Z,28.73
2022-12-08T02:26:50.365Z,28.75
2022-12-08T02:29:43.868Z,31.13
2022-12-08T02:32:25.438Z,28.67
2022-12-08T02:35:08.581Z,29.33
2022-12-08T02:37:45.649Z,28.88
2022-12-08T02:40:30.796Z,30.10
2022-12-08T02:43:03.513Z,30.08
2022-12-08T02:45:50.229Z,28.58
2022-12-08T02:48:16.854Z,28.98
2022-12-08T02:50:43.625Z,29.77
2022-12-08T02:56:04.393Z,29.42
2022-12-08T02:58:36.650Z,28.05
2022-12-08T03:01:12.885Z,28.42
2022-12-08T03:03:54.583Z,27.80
2022-12-08T03:06:32.393Z,29.48
2022-12-08T03:09:30.344Z,27.92
2022-12-08T03:12:10.358Z,27.75
2022-12-08T03:14:40.691Z,26.88
2022-12-08T03:17:08.185Z,27.13
2022-12-08T03:19:39.319Z,28.02
2022-12-08T03:22:07.151Z,26.63
2022-12-08T03:24:37.929Z,27.73
2022-12-08T03:27:12.568Z,26.60
2022-12-08T03:29:39.099Z,27.48
2022-12-08T03:32:23.829Z,27.35
2022-12-08T03:34:51.553Z,25.38
2022-12-08T03:37:18.334Z,25.15
2022-12-08T03:39:44.812Z,26.00
2022-12-08T03:42:11.412Z,25.60
2022-12-08T03:44:37.889Z,26.55
2022-12-08T03:47:04.356Z,24.40
2022-12-08T03:49:30.809Z,25.98
2022-12-08T03:51:57.571Z,25.50
2022-12-08T03:54:24.315Z,25.25
2022-12-08T03:56:50.916Z,24.65
2022-12-08T03:59:17.391Z,24.38
2022-12-08T04:01:43.847Z,23.85
2022-12-08T04:04:10.292Z,23.58
2022-12-08T04:06:37.003Z,24.80
2022-12-08T04:09:03.613Z,24.52
2022-12-08T04:11:30.007Z,24.95
2022-12-08T04:13:56.497Z,23.88
2022-12-08T04:16:25.230Z,24.55
2022-12-08T04:18:51.854Z,21.95
2022-12-08T04:21:18.242Z,22.85
2022-12-08T04:23:45.261Z,22.48
2022-12-08T04:26:12.438Z,22.60
2022-12-08T04:28:39.659Z,22.75
2022-12-08T04:31:07.067Z,21.92
2022-12-08T04:33:35.058Z,22.50
2022-12-08T04:36:03.214Z,22.75
2022-12-08T04:38:29.789Z,22.35
2022-12-08T04:40:56.170Z,22.05
2022-12-08T04:43:22.655Z,21.42
2022-12-08T04:45:49.057Z,20.75
2022-12-08T04:48:15.473Z,21.20
2022-12-08T04:50:43.685Z,20.08
2022-12-08T04:53:11.253Z,21.33
2022-12-08T04:55:44.197Z,20.67
2022-12-08T04:58:15.363Z,19.30
2022-12-08T05:00:41.948Z,19.42
2022-12-08T05:03:08.413Z,19.58
2022-12-08T05:05:34.974Z,18.75
2022-12-08T05:08:01.629Z,18.88
2022-12-08T05:10:28.077Z,19.90
2022-12-08T05:12:54.631Z,20.02
2022-12-08T05:15:21.030Z,19.70
2022-12-08T05:17:47.467Z,18.42
2022-12-08T05:20:14.097Z,19.13
2022-12-08T05:22:40.549Z,18.90
2022-12-08T05:25:07.348Z,17.90
2022-12-08T05:27:34.090Z,18.45
2022-12-08T05:30:01.015Z,18.27
2022-12-08T05:32:27.678Z,17.95
2022-12-08T05:34:54.130Z,19.58
2022-12-08T05:37:20.603Z,18.15
2022-12-08T05:39:46.975Z,18.50
2022-12-08T05:42:13.420Z,18.63
2022-12-08T05:44:39.828Z,18.58
2022-12-08T05:47:06.219Z,19.23
2022-12-08T05:49:32.685Z,19.23
2022-12-08T05:51:59.046Z,20.00
2022-12-08T05:54:25.442Z,20.63
2022-12-08T05:56:51.791Z,21.13
2022-12-08T05:59:18.200Z,20.25
2022-12-08T06:01:44.677Z,20.40
2022-12-08T06:04:11.213Z,20.30
2022-12-08T06:06:38.435Z,20.73
2022-12-08T06:09:05.696Z,20.35
2022-12-08T06:11:33.228Z,20.35
2022-12-08T06:14:00.522Z,20.90
2022-12-08T06:16:28.001Z,21.20
2022-12-08T06:18:55.428Z,21.08
2022-12-08T06:21:21.945Z,21.50
2022-12-08T06:23:52.971Z,21.13
2022-12-08T06:26:20.481Z,20.77
2022-12-08T06:28:47.376Z,20.60
2022-12-08T06:31:18.657Z,20.90
2022-12-08T06:33:46.148Z,21.42
2022-12-08T06:36:14.637Z,20.33
2022-12-08T06:38:43.580Z,19.30
2022-12-08T06:41:11.132Z,20.08
2022-12-08T06:43:38.122Z,19.67
2022-12-08T06:46:07.682Z,18.55
2022-12-08T06:48:34.343Z,18.95
2022-12-08T06:51:11.859Z,18.08
2022-12-08T06:53:38.944Z,18.70
2022-12-08T06:56:05.837Z,18.48
2022-12-08T06:58:33.852Z,21.95
2022-12-08T07:01:06.256Z,19.55
2022-12-08T07:03:32.731Z,19.13
2022-12-08T07:06:03.725Z,18.48
2022-12-08T07:08:31.480Z,18.33
2022-12-08T07:10:57.887Z,18.65
2022-12-08T07:13:24.268Z,17.63
2022-12-08T07:15:50.922Z,18.38
2022-12-08T07:18:17.379Z,17.63
2022-12-08T07:20:43.827Z,17.90
2022-12-08T07:23:10.207Z,18.02
2022-12-08T07:25:36.664Z,18.13
2022-12-08T07:28:08.053Z,17.77
2022-12-08T07:30:34.474Z,15.98
2022-12-08T07:33:02.607Z,15.65
2022-12-08T07:35:29.005Z,14.90
2022-12-08T07:37:55.415Z,15.15
2022-12-08T07:40:21.802Z,13.02
2022-12-08T07:42:48.408Z,15.10
2022-12-08T07:45:14.805Z,12.43
2022-12-08T07:47:41.190Z,12.88
2022-12-08T07:50:08.398Z,16.25
2022-12-08T07:52:35.558Z,15.75
2022-12-08T07:55:02.201Z,13.32
2022-12-08T07:57:28.610Z,14.55
2022-12-08T07:59:54.986Z,13.40
2022-12-08T08:02:24.845Z,14.52
2022-12-08T08:04:53.099Z,13.68
2022-12-08T08:07:19.633Z,15.00
2022-12-08T08:09:46.027Z,14.00
2022-12-08T08:12:30.740Z,13.95
2022-12-08T08:14:57.923Z,13.55
2022-12-08T08:17:24.434Z,11.88
2022-12-08T08:19:50.857Z,11.95
2022-12-08T08:22:17.238Z,12.25
2022-12-08T08:24:45.218Z,11.27
2022-12-08T08:27:12.477Z,10.98
2022-12-08T08:29:38.875Z,11.57
2022-12-08T08:32:05.688Z,12.20
2022-12-08T08:34:32.422Z,12.88
2022-12-08T08:36:59.042Z,12.90
2022-12-08T08:39:25.463Z,12.98
2022-12-08T08:41:51.951Z,12.82
2022-12-08T08:44:18.337Z,14.60
2022-12-08T08:46:44.978Z,14.50
2022-12-08T08:49:11.383Z,15.43
2022-12-08T08:51:37.776Z,16.50
2022-12-08T08:54:04.386Z,17.48
2022-12-08T08:56:30.804Z,16.80
2022-12-08T08:58:57.299Z,18.00
2022-12-08T09:01:28.221Z,20.83
2022-12-08T09:03:57.740Z,19.30
2022-12-08T09:06:24.878Z,20.08
2022-12-08T09:08:51.403Z,21.58
2022-12-08T09:11:18.517Z,22.95
2022-12-08T09:13:49.298Z,22.45
2022-12-08T09:16:16.025Z,21.80
2022-12-08T09:18:44.258Z,23.77
2022-12-08T09:21:14.907Z,24.00
2022-12-08T09:23:41.355Z,25.83
2022-12-08T09:26:08.568Z,27.13
2022-12-08T09:28:35.125Z,28.88
2022-12-08T09:31:01.986Z,27.35
2022-12-08T09:33:28.450Z,28.25
2022-12-08T09:35:54.916Z,26.90
2022-12-08T09:38:21.479Z,31.65
2022-12-08T09:40:53.116Z,27.58
2022-12-08T09:43:51.468Z,28.25
2022-12-08T09:46:19.124Z,25.75
2022-12-08T09:48:55.534Z,25.13
2022-12-08T09:51:27.614Z,25.60
2022-12-08T09:54:20.492Z,26.17
2022-12-08T09:56:48.963Z,23.08
2022-12-08T09:59:44.746Z,22.27
2022-12-08T10:02:26.406Z,25.10
2022-12-08T10:04:55.401Z,24.63
2022-12-08T10:08:04.159Z,22.75
2022-12-08T10:10:39.146Z,23.52
2022-12-08T10:13:17.892Z,24.83
2022-12-08T10:16:02.495Z,24.20
2022-12-08T10:18:31.632Z,25.80
2022-12-08T10:21:10.009Z,25.80
2022-12-08T10:23:39.371Z,25.48
2022-12-08T10:26:15.391Z,24.67
2022-12-08T10:28:45.109Z,26.40
2022-12-08T10:31:23.432Z,26.42
2022-12-08T10:34:21.057Z,26.10
2022-12-08T10:37:08.701Z,26.05
2022-12-08T10:39:40.736Z,25.83
2022-12-08T10:42:19.789Z,25.95
2022-12-08T10:45:02.472Z,26.17
2022-12-08T10:47:34.800Z,27.25
2022-12-08T10:50:09.280Z,28.27
2022-12-08T10:52:40.081Z,27.13
2022-12-08T10:55:17.889Z,26.50
2022-12-08T10:57:44.640Z,28.65
2022-12-08T11:00:29.506Z,25.88
2022-12-08T11:03:02.418Z,26.77
2022-12-08T11:05:33.744Z,29.80
2022-12-08T11:08:00.990Z,27.88
2022-12-08T11:10:34.910Z,28.42
2022-12-08T11:13:06.733Z,28.98
2022-12-08T11:15:37.282Z,29.65
2022-12-08T11:18:09.506Z,29.15
2022-12-08T11:20:41.667Z,29.13
2022-12-08T11:23:24.093Z,28.92
2022-12-08T11:25:54.161Z,28.63
2022-12-08T11:28:24.244Z,28.52
2022-12-08T11:31:00.139Z,28.52
2022-12-08T11:33:28.394Z,30.60
2022-12-08T11:36:00.342Z,30.38
2022-12-08T11:38:28.323Z,27.45
2022-12-08T11:41:01.391Z,25.65
2022-12-08T11:43:33.569Z,15.77
2022-12-08T11:46:09.022Z,12.48
2022-12-08T11:48:41.145Z,11.73
2022-12-08T11:51:16.586Z,10.45
2022-12-08T11:54:04.024Z,10.23
2022-12-08T11:56:46.787Z,10.18
2022-12-08T11:59:21.034Z,10.40
2022-12-08T12:01:47.503Z,10.00
2022-12-08T12:04:22.467Z,10.25
2022-12-08T12:07:19.478Z,10.32
2022-12-08T12:10:17.811Z,10.57
2022-12-08T12:13:25.017Z,12.13
2022-12-08T12:16:22.367Z,12.27
2022-12-08T12:19:00.171Z,12.38
2022-12-08T12:21:33.625Z,12.77
2022-12-08T12:26:58.582Z,13.20
2022-12-08T12:29:29.830Z,14.23
2022-12-08T12:32:01.784Z,14.38
2022-12-08T12:34:31.818Z,13.18
2022-12-08T12:37:11.978Z,13.80
2022-12-08T12:39:57.163Z,15.20
2022-12-08T12:42:47.122Z,14.57
2022-12-08T12:45:16.345Z,14.07
2022-12-08T12:48:03.203Z,14.75
2022-12-08T12:50:36.945Z,16.67
2022-12-08T12:53:26.359Z,15.38
2022-12-08T12:55:57.114Z,15.45
2022-12-08T12:58:29.915Z,15.05
2022-12-08T13:01:11.870Z,15.00
2022-12-08T13:03:43.322Z,15.25
2022-12-08T13:06:14.787Z,14.63
2022-12-08T13:08:51.025Z,15.93
2022-12-08T13:11:17.674Z,15.90
2022-12-08T13:14:03.340Z,16.77
2022-12-08T13:16:38.916Z,17.92
2022-12-08T13:19:14.538Z,19.52
2022-12-08T13:21:41.249Z,21.63
2022-12-08T13:24:11.000Z,24.33
2022-12-08T13:27:04.856Z,20.52
2022-12-08T13:32:04.741Z,18.65
2022-12-08T13:34:41.888Z,17.95
2022-12-08T13:37:11.200Z,18.77
2022-12-08T13:39:40.654Z,18.67
2022-12-08T13:42:35.324Z,19.60
2022-12-08T13:45:39.687Z,19.13
2022-12-08T13:48:55.854Z,19.60
2022-12-08T13:57:30.815Z,17.08
2022-12-08T14:00:18.419Z,15.52
2022-12-08T14:02:56.189Z,14.45
2022-12-08T14:05:47.715Z,14.73
2022-12-08T14:08:57.847Z,15.35
2022-12-08T14:11:33.456Z,16.00
2022-12-08T14:14:08.808Z,15.77
2022-12-08T14:16:52.087Z,15.73
2022-12-08T14:19:21.776Z,15.25
2022-12-08T14:21:55.794Z,14.00
2022-12-08T14:24:24.198Z,13.68
2022-12-08T14:26:53.794Z,14.65
2022-12-08T14:29:31.220Z,13.02
2022-12-08T14:31:58.040Z,12.13
2022-12-08T14:34:24.574Z,13.15
2022-12-08T14:36:52.763Z,12.30
2022-12-08T14:39:20.836Z,12.57
2022-12-08T14:42:07.632Z,13.65
2022-12-08T14:44:38.896Z,13.45
2022-12-08T14:47:09.270Z,14.77
2022-12-08T14:49:38.760Z,15.55
2022-12-08T14:52:12.145Z,16.23
2022-12-08T14:57:07.704Z,16.95
2022-12-08T14:59:37.775Z,18.02
2022-12-08T15:02:10.360Z,22.80
2022-12-08T15:04:38.961Z,22.70
2022-12-08T15:07:12.705Z,27.17
2022-12-08T15:09:44.928Z,22.55
2022-12-08T15:12:14.173Z,22.92
2022-12-08T15:14:43.997Z,21.98
2022-12-08T15:17:40.230Z,25.08
2022-12-08T15:20:31.713Z,20.70
2022-12-08T15:23:01.977Z,23.10
2022-12-08T15:25:28.420Z,21.65
2022-12-08T15:27:56.323Z,21.48
2022-12-08T15:30:23.206Z,22.42
2022-12-08T15:32:52.140Z,20.83
2022-12-08T15:35:18.669Z,20.35
2022-12-08T15:37:46.242Z,22.40
2022-12-08T15:40:21.574Z,22.02
2022-12-08T15:42:48.745Z,22.02
2022-12-08T15:45:16.710Z,23.65
2022-12-08T15:47:44.751Z,22.52
2022-12-08T15:50:16.588Z,22.35
2022-12-08T15:52:43.634Z,22.58
2022-12-08T15:55:21.411Z,22.67
2022-12-08T16:00:56.541Z,20.98
2022-12-08T16:04:13.884Z,22.23
2022-12-08T16:09:23.292Z,22.92
2022-12-08T16:12:10.187Z,23.58
2022-12-08T16:17:25.111Z,23.75
2022-12-08T16:19:51.877Z,23.52
2022-12-08T16:25:24.678Z,23.42
2022-12-08T16:28:23.118Z,21.48
2022-12-08T16:30:41.767Z,23.63
2022-12-08T16:33:11.179Z,23.80
2022-12-08T16:35:37.930Z,23.38
2022-12-08T16:38:04.484Z,23.90
2022-12-08T16:40:31.124Z,24.35
2022-12-08T16:42:57.616Z,22.58
2022-12-08T16:45:29.345Z,23.27
2022-12-08T16:47:58.252Z,23.25
2022-12-08T16:50:30.290Z,23.80
2022-12-08T16:53:04.320Z,24.42
2022-12-08T16:55:31.310Z,26.42
2022-12-08T16:57:57.766Z,23.42
2022-12-08T17:00:27.926Z,25.40
2022-12-08T17:02:55.365Z,25.50
2022-12-08T17:05:23.799Z,27.30
2022-12-08T17:07:51.878Z,32.83
2022-12-08T17:10:20.942Z,30.05
2022-12-08T17:12:47.385Z,26.85
2022-12-08T17:15:16.842Z,24.67
2022-12-08T17:17:43.408Z,25.23
2022-12-08T17:20:13.307Z,25.50
2022-12-08T17:22:39.706Z,25.92
2022-12-08T17:25:06.747Z,25.05
2022-12-08T17:27:33.505Z,24.95
2022-12-08T17:29:59.877Z,26.23
2022-12-08T17:32:26.818Z,25.13
2022-12-08T17:34:53.649Z,24.23
2022-12-08T17:37:20.080Z,23.95
2022-12-08T17:39:46.469Z,26.17
2022-12-08T17:42:12.877Z,26.77
2022-12-08T17:44:39.312Z,26.70
2022-12-08T17:47:05.731Z,26.13
2022-12-08T17:49:34.999Z,24.85
2022-12-08T17:52:06.844Z,22.77
2022-12-08T17:54:34.000Z,22.08
2022-12-08T17:57:00.470Z,22.92
2022-12-08T17:59:28.471Z,23.23
2022-12-08T18:01:56.605Z,21.73
2022-12-08T18:04:23.722Z,21.00
2022-12-08T18:06:50.435Z,22.17
2022-12-08T18:09:17.222Z,26.33
2022-12-08T18:11:46.146Z,22.85
2022-12-08T18:14:14.178Z,22.15
2022-12-08T18:16:43.466Z,22.17
2022-12-08T18:19:11.221Z,23.50
2022-12-08T18:21:38.596Z,22.50
2022-12-08T18:24:05.454Z,22.48
2022-12-08T18:26:32.511Z,21.02
2022-12-08T18:28:58.999Z,21.92
2022-12-08T18:31:25.816Z,23.08
2022-12-08T18:33:53.257Z,22.88
2022-12-08T18:36:25.219Z,24.15
2022-12-08T18:38:52.997Z,22.10
2022-12-08T18:41:23.309Z,24.38
2022-12-08T18:43:50.499Z,24.08
2022-12-08T18:46:17.037Z,24.13
2022-12-08T18:48:47.163Z,24.50
2022-12-08T18:51:16.404Z,24.38
2022-12-08T18:53:44.595Z,22.73
2022-12-08T18:56:24.055Z,23.67
2022-12-08T18:58:50.456Z,23.50
2022-12-08T19:01:17.165Z,22.63
2022-12-08T19:03:58.499Z,22.23
2022-12-08T19:06:31.128Z,21.98
2022-12-08T19:08:57.792Z,22.98
2022-12-08T19:11:27.158Z,23.58
2022-12-08T19:13:54.959Z,20.88
2022-12-08T19:16:22.498Z,20.77
2022-12-08T19:18:49.210Z,21.45
2022-12-08T19:21:15.618Z,21.75
2022-12-08T19:23:42.194Z,21.15
2022-12-08T19:26:10.333Z,20.90
2022-12-08T19:28:37.105Z,21.88
2022-12-08T19:31:09.097Z,19.90
2022-12-08T19:33:36.846Z,20.23
2022-12-08T19:36:08.643Z,21.70
2022-12-08T19:38:55.580Z,20.58
2022-12-08T19:41:41.220Z,21.10
2022-12-08T19:44:36.043Z,22.25
2022-12-08T19:47:03.374Z,22.45
2022-12-08T19:49:29.838Z,22.70
2022-12-08T19:51:56.943Z,22.73
2022-12-08T19:54:23.539Z,21.67
2022-12-08T19:56:50.205Z,22.35
2022-12-08T19:59:16.835Z,22.33
2022-12-08T20:01:44.167Z,21.40
2022-12-08T20:04:18.328Z,22.23
2022-12-08T20:06:45.555Z,22.13
2022-12-08T20:09:12.904Z,24.45
2022-12-08T20:11:39.695Z,21.70
2022-12-08T20:14:07.224Z,29.92
2022-12-08T20:16:34.414Z,28.27
2022-12-08T20:19:01.848Z,26.10
2022-12-08T20:21:28.515Z,26.27
2022-12-08T20:23:54.959Z,27.85
2022-12-08T20:26:22.521Z,27.70
2022-12-08T20:28:49.984Z,26.25
2022-12-08T20:31:22.152Z,27.92
2022-12-08T20:33:48.800Z,29.60
2022-12-08T20:36:18.566Z,28.25
2022-12-08T20:38:49.659Z,25.63
2022-12-08T20:41:16.474Z,26.00
2022-12-08T20:43:45.041Z,24.98
2022-12-08T20:46:13.626Z,25.45
2022-12-08T20:48:40.664Z,23.45
2022-12-08T20:51:07.379Z,25.13
2022-12-08T20:53:33.827Z,28.63
2022-12-08T20:56:00.290Z,27.75
2022-12-08T20:58:26.916Z,31.20
2022-12-08T21:00:53.465Z,33.22
2022-12-08T21:03:20.104Z,27.65
2022-12-08T21:05:51.408Z,26.15
2022-12-08T21:08:19.679Z,25.52
2022-12-08T21:10:53.494Z,25.05
2022-12-08T21:13:20.021Z,24.60
2022-12-08T21:15:47.281Z,23.13
2022-12-08T21:18:15.588Z,23.40
2022-12-08T21:20:42.722Z,21.02
2022-12-08T21:23:09.594Z,22.55
2022-12-08T21:25:41.365Z,21.67
2022-12-08T21:28:08.203Z,21.38
2022-12-08T21:30:34.909Z,21.65
2022-12-08T21:33:01.755Z,19.85
2022-12-08T21:35:28.277Z,21.02
2022-12-08T21:37:54.991Z,20.52
2022-12-08T21:40:21.389Z,21.05
2022-12-08T21:42:47.980Z,22.65
2022-12-08T21:45:17.268Z,21.65
2022-12-08T21:47:45.265Z,22.75
2022-12-08T21:50:13.042Z,21.42
2022-12-08T21:52:42.085Z,20.70
2022-12-08T21:55:10.805Z,22.02
2022-12-08T21:57:37.391Z,20.88
2022-12-08T22:00:06.606Z,20.30
2022-12-08T22:02:34.139Z,20.90
2022-12-08T22:05:00.932Z,19.73
2022-12-08T22:07:27.378Z,21.17
2022-12-08T22:09:54.220Z,21.50
2022-12-08T22:12:20.886Z,21.55
2022-12-08T22:14:49.906Z,20.70
2022-12-08T22:17:16.862Z,20.08
2022-12-08T22:19:43.385Z,21.40
2022-12-08T22:22:10.238Z,21.27
2022-12-08T22:24:37.047Z,21.00
2022-12-08T22:27:04.476Z,22.35
2022-12-08T22:29:31.174Z,22.17
2022-12-08T22:31:57.987Z,22.20
2022-12-08T22:34:24.922Z,23.52
2022-12-08T22:36:51.569Z,22.20
2022-12-08T22:39:18.406Z,23.10
2022-12-08T22:41:45.008Z,20.60
2022-12-08T22:44:14.219Z,21.77
2022-12-08T22:46:41.055Z,21.13
2022-12-08T22:49:07.753Z,22.73
2022-12-08T22:51:37.704Z,22.30
2022-12-08T22:54:05.524Z,22.45
2022-12-08T22:56:31.941Z,21.92
2022-12-08T22:58:58.504Z,24.42
2022-12-08T23:01:31.390Z,35.65
2022-12-08T23:03:59.457Z,27.27
2022-12-08T23:06:27.446Z,25.50
2022-12-08T23:08:54.771Z,31.25
2022-12-08T23:11:23.499Z,29.17
2022-12-08T23:13:50.683Z,23.30
2022-12-08T23:16:17.420Z,24.00
2022-12-08T23:18:45.871Z,21.60
2022-12-08T23:21:15.884Z,23.73
2022-12-08T23:23:42.915Z,22.33
2022-12-08T23:26:18.468Z,20.75
2022-12-08T23:28:45.294Z,22.75
2022-12-08T23:31:11.871Z,22.08
2022-12-08T23:33:38.701Z,20.20
2022-12-08T23:36:05.428Z,22.23
2022-12-08T23:38:32.232Z,20.67
2022-12-08T23:41:04.294Z,21.67
2022-12-08T23:43:30.863Z,21.33
2022-12-08T23:45:57.608Z,22.63
2022-12-08T23:48:24.531Z,21.88
2022-12-08T23:50:51.243Z,22.08
2022-12-08T23:53:17.682Z,21.15
2022-12-08T23:55:44.099Z,22.33
2022-12-08T23:58:11.091Z,22.38
